Jane, Missouri
Current Conditions -  °F | °C
As of 7:35 AM on Saturday 27 Dec 2014 (Local Time) from KVBT Reporting Station
Overcast Overcast  
Wind Chill: -1°   Ceiling: 1100
Heat Index:   Visibility: 10mi
Dew Point: -1°   Wind: 7mph
Humidity: 81%   Direction: 330°NNW
Pressure: 30.23"   Gusts: NA
Location:  36.5706°N, 94.342°W
Report Text: KVBT 271335Z AUTO 33006KT 10SM OVC011 02/M01 A3023 RMK AO1
Loading
Personal Weather Stations






























Interactive Weather Map New forecast layout! Learn more

10-Day Weather Forecast

Advertisements
Track Severe Weather on mobile